Time;durP1;ratioP1;P1;durP2;ratioP2;P2;SDS_P1;SDS_P2;PMS_P1;PMS_P2;Temp;Humidity;BMP_temperature;BMP_pressure;BME280_temperature;BME280_humidity;BME280_pressure;Samples;Min_cycle;Max_cycle;Signal;HPM_P1;HPM_P2
2021/07/28 00:00:06;;;;;;;16.98;12.75;;;17.00;90.80;;;;;;5016159;28;20480;-75
2021/07/28 00:02:31;;;;;;;18.73;13.93;;;16.90;90.90;;;;;;5007993;28;20119;-72
2021/07/28 00:04:57;;;;;;;20.33;13.93;;;16.90;90.90;;;;;;4999731;28;20073;-83
2021/07/28 00:07:23;;;;;;;17.83;13.90;;;16.90;91.00;;;;;;5008398;28;20108;-73
2021/07/28 00:09:49;;;;;;;19.98;14.18;;;16.90;91.00;;;;;;5026828;28;20116;-74
2021/07/28 00:12:15;;;;;;;21.42;14.70;;;16.90;91.10;;;;;;5026983;28;20049;-77
2021/07/28 00:14:40;;;;;;;20.27;15.07;;;16.90;91.10;;;;;;5003607;28;20113;-74
2021/07/28 00:17:09;;;;;;;19.67;14.32;;;16.90;90.90;;;;;;5006145;28;20038;-74
2021/07/28 00:25:07;;;;;;;21.63;15.68;;;16.90;91.00;;;;;;5004736;28;20073;-75
2021/07/28 00:27:35;;;;;;;22.17;15.90;;;16.90;90.90;;;;;;4998455;28;20041;-73
2021/07/28 00:30:01;;;;;;;23.27;14.65;;;16.80;91.00;;;;;;5002199;28;20125;-73
2021/07/28 00:32:27;;;;;;;21.52;15.38;;;16.80;91.00;;;;;;5005378;28;20125;-75
2021/07/28 00:34:53;;;;;;;21.20;15.93;;;16.80;91.10;;;;;;5011069;28;20048;-73
2021/07/28 00:37:18;;;;;;;21.02;16.50;;;16.80;91.20;;;;;;4999390;28;20038;-73
2021/07/28 00:39:44;;;;;;;20.88;16.10;;;16.80;91.20;;;;;;5003958;28;20027;-78
2021/07/28 00:42:10;;;;;;;21.23;15.32;;;16.70;91.20;;;;;;5010630;28;20042;-72
2021/07/28 00:44:35;;;;;;;20.05;15.70;;;16.60;91.40;;;;;;5007430;28;20087;-77
2021/07/28 00:47:01;;;;;;;22.30;16.42;;;16.60;91.60;;;;;;4999890;28;20042;-72
2021/07/28 00:49:27;;;;;;;21.27;14.93;;;16.60;91.70;;;;;;5020483;28;20042;-73
2021/07/28 00:51:55;;;;;;;24.13;17.20;;;16.60;91.80;;;;;;5004629;28;20125;-77
2021/07/28 00:54:23;;;;;;;20.27;15.45;;;16.50;92.00;;;;;;5010428;28;23198;-73
2021/07/28 00:56:48;;;;;;;23.45;15.80;;;16.60;92.10;;;;;;4998303;28;20462;-73
2021/07/28 00:59:15;;;;;;;21.98;15.40;;;16.60;92.20;;;;;;5020753;28;20108;-76
2021/07/28 01:01:41;;;;;;;21.35;15.85;;;16.70;92.20;;;;;;5002431;28;20038;-74
2021/07/28 01:04:07;;;;;;;21.45;15.65;;;16.70;92.10;;;;;;4997664;28;20310;-72
2021/07/28 01:06:33;;;;;;;22.70;15.90;;;16.70;92.10;;;;;;5007247;28;20038;-73
2021/07/28 01:09:00;;;;;;;21.48;16.02;;;16.70;92.10;;;;;;5007239;28;20038;-73
2021/07/28 01:11:26;;;;;;;23.05;17.02;;;16.70;92.10;;;;;;5007764;28;20035;-73
2021/07/28 01:13:52;;;;;;;20.92;15.20;;;16.80;91.90;;;;;;5003438;28;20026;-72
2021/07/28 01:16:23;;;;;;;22.85;14.77;;;16.70;91.80;;;;;;5008779;28;20030;-73
2021/07/28 01:18:51;;;;;;;20.83;14.73;;;16.70;91.90;;;;;;5002828;28;20119;-74
2021/07/28 01:21:19;;;;;;;23.02;15.18;;;16.70;91.80;;;;;;5015782;28;20040;-77
2021/07/28 01:23:47;;;;;;;19.33;14.80;;;16.70;91.90;;;;;;4998281;28;20042;-73
2021/07/28 01:26:14;;;;;;;21.00;15.00;;;16.70;92.00;;;;;;5008761;28;20135;-74
2021/07/28 01:28:40;;;;;;;21.45;15.68;;;16.70;92.00;;;;;;5029437;28;20052;-73
2021/07/28 01:31:14;;;;;;;27.98;16.02;;;16.70;92.00;;;;;;5024815;28;20034;-74
2021/07/28 01:33:45;;;;;;;21.90;15.15;;;16.60;92.00;;;;;;5033239;28;20084;-72
2021/07/28 01:36:14;;;;;;;20.60;15.23;;;16.60;92.00;;;;;;5029464;28;20029;-73
2021/07/28 01:38:40;;;;;;;21.98;15.75;;;16.60;92.10;;;;;;5025057;28;20038;-73
2021/07/28 01:41:07;;;;;;;20.48;14.90;;;16.60;92.10;;;;;;5029499;28;20042;-73
2021/07/28 01:43:34;;;;;;;20.25;15.05;;;16.60;92.10;;;;;;5037734;28;20033;-73
2021/07/28 01:46:01;;;;;;;20.30;15.43;;;16.60;92.00;;;;;;5033775;28;20040;-73
2021/07/28 01:48:27;;;;;;;18.73;14.25;;;16.60;92.10;;;;;;5042076;28;20159;-73
2021/07/28 01:50:56;;;;;;;17.75;14.27;;;16.60;92.10;;;;;;5028833;28;20116;-73
2021/07/28 01:53:23;;;;;;;18.08;14.02;;;16.50;92.10;;;;;;5015584;28;20064;-74
2021/07/28 01:55:49;;;;;;;17.17;13.82;;;16.50;92.10;;;;;;5014599;28;20493;-73
2021/07/28 01:58:15;;;;;;;18.63;13.63;;;16.50;92.10;;;;;;5007996;28;20470;-73
2021/07/28 02:00:41;;;;;;;19.67;14.43;;;16.40;92.10;;;;;;5002448;28;20048;-73
2021/07/28 02:03:07;;;;;;;19.98;15.38;;;16.40;92.20;;;;;;5008354;28;20049;-73
2021/07/28 02:05:38;;;;;;;19.65;14.88;;;16.30;92.20;;;;;;5004293;28;20124;-74
2021/07/28 02:08:06;;;;;;;21.33;15.05;;;16.30;92.20;;;;;;5013182;28;20100;-80
2021/07/28 02:10:42;;;;;;;19.48;14.80;;;16.30;92.20;;;;;;5009208;28;20025;-73
2021/07/28 02:13:08;;;;;;;22.65;15.13;;;16.30;92.30;;;;;;5026807;28;20040;-74
2021/07/28 02:15:35;;;;;;;22.27;15.82;;;16.30;92.40;;;;;;5015401;28;20034;-73
2021/07/28 02:18:02;;;;;;;24.48;15.02;;;16.30;92.40;;;;;;5017858;28;20124;-73
2021/07/28 02:20:28;;;;;;;23.23;15.23;;;16.30;92.40;;;;;;5000215;28;20549;-72
2021/07/28 02:22:54;;;;;;;19.92;16.17;;;16.30;92.30;;;;;;4997621;28;20054;-72
2021/07/28 02:25:21;;;;;;;22.45;16.08;;;16.30;92.40;;;;;;5001681;28;20068;-72
2021/07/28 02:27:48;;;;;;;21.20;15.30;;;16.30;92.40;;;;;;4998238;28;20046;-72
2021/07/28 02:30:16;;;;;;;19.45;15.30;;;16.30;92.40;;;;;;5003803;28;20034;-73
2021/07/28 02:32:42;;;;;;;20.27;14.77;;;16.30;92.40;;;;;;5010935;28;20042;-72
2021/07/28 02:35:08;;;;;;;18.42;15.32;;;16.30;92.40;;;;;;5012762;28;20040;-73
2021/07/28 02:37:35;;;;;;;20.17;14.60;;;16.20;92.40;;;;;;5007642;28;20075;-71
2021/07/28 02:40:02;;;;;;;20.17;14.23;;;16.20;92.40;;;;;;5009036;28;20084;-72
2021/07/28 02:42:27;;;;;;;25.42;15.77;;;16.20;92.30;;;;;;5011623;28;20065;-71
2021/07/28 02:44:53;;;;;;;20.27;15.23;;;16.20;92.30;;;;;;5014338;28;20041;-72
2021/07/28 02:47:19;;;;;;;22.35;16.63;;;16.20;92.40;;;;;;5016323;28;20033;-72
2021/07/28 02:49:44;;;;;;;20.98;15.80;;;16.20;92.50;;;;;;5008578;28;20103;-73
2021/07/28 02:52:10;;;;;;;21.90;15.18;;;16.20;92.40;;;;;;5018734;28;20107;-72
2021/07/28 02:54:36;;;;;;;19.58;14.52;;;16.10;92.30;;;;;;5032005;28;20468;-74
2021/07/28 02:57:02;;;;;;;22.15;15.27;;;16.10;92.40;;;;;;5042741;28;20127;-71
2021/07/28 02:59:27;;;;;;;19.30;15.02;;;16.10;92.30;;;;;;5016149;28;20033;-72
2021/07/28 03:01:53;;;;;;;21.77;15.85;;;16.10;92.30;;;;;;5033287;28;20075;-79
2021/07/28 03:04:19;;;;;;;22.15;15.48;;;16.10;92.50;;;;;;5032178;28;20064;-76
2021/07/28 03:06:46;;;;;;;21.27;14.98;;;16.20;92.50;;;;;;5027470;28;20495;-72
2021/07/28 03:09:12;;;;;;;19.45;15.45;;;16.20;92.40;;;;;;5025813;28;20044;-71
2021/07/28 03:11:38;;;;;;;21.25;15.27;;;16.20;92.20;;;;;;5020507;28;20129;-72
2021/07/28 03:14:04;;;;;;;22.90;15.23;;;16.10;92.20;;;;;;5023395;28;20061;-72
2021/07/28 03:16:30;;;;;;;20.25;14.93;;;16.10;92.20;;;;;;5006338;28;20444;-72
2021/07/28 03:18:56;;;;;;;20.58;14.80;;;16.10;92.20;;;;;;5012079;28;20033;-77
2021/07/28 03:21:21;;;;;;;21.23;14.35;;;16.10;92.10;;;;;;5018850;28;20037;-72
2021/07/28 03:23:47;;;;;;;22.73;15.38;;;16.10;92.10;;;;;;5009274;28;20962;-73
2021/07/28 03:26:13;;;;;;;20.98;14.63;;;16.10;92.10;;;;;;5002055;28;20034;-73
2021/07/28 03:28:39;;;;;;;25.05;14.25;;;16.10;92.00;;;;;;5000338;28;20469;-72
2021/07/28 03:31:05;;;;;;;18.95;13.70;;;16.00;92.10;;;;;;5003311;28;20044;-74
2021/07/28 03:33:30;;;;;;;19.15;13.05;;;16.00;92.10;;;;;;5017396;28;20044;-72
2021/07/28 03:35:57;;;;;;;18.40;13.45;;;16.10;92.20;;;;;;5002497;28;20363;-72
2021/07/28 03:38:22;;;;;;;25.02;12.98;;;16.10;92.20;;;;;;5002188;28;20026;-72
2021/07/28 03:40:48;;;;;;;19.02;12.30;;;16.10;92.10;;;;;;5003159;28;20125;-72
2021/07/28 03:43:14;;;;;;;21.50;13.10;;;16.10;92.10;;;;;;5001325;28;20110;-71
2021/07/28 03:45:40;;;;;;;19.27;12.10;;;16.10;91.90;;;;;;4998787;28;20042;-72
2021/07/28 03:48:06;;;;;;;22.90;12.35;;;16.10;91.80;;;;;;5010188;28;20385;-78
2021/07/28 03:50:31;;;;;;;19.00;11.15;;;16.00;91.70;;;;;;5008413;28;20401;-72
2021/07/28 03:53:00;;;;;;;20.40;11.93;;;16.00;91.60;;;;;;5008550;28;20034;-72
2021/07/28 03:55:26;;;;;;;17.30;10.30;;;16.00;91.40;;;;;;5006522;28;20088;-72
2021/07/28 03:57:51;;;;;;;18.30;11.40;;;15.90;91.30;;;;;;5004568;28;20054;-72
2021/07/28 04:00:17;;;;;;;19.95;11.65;;;16.00;91.30;;;;;;5002370;28;20541;-72
2021/07/28 04:02:43;;;;;;;17.02;11.50;;;15.90;91.20;;;;;;5004329;28;20043;-71
2021/07/28 04:05:09;;;;;;;16.55;11.63;;;15.90;91.30;;;;;;5003840;28;20037;-78
2021/07/28 04:07:35;;;;;;;19.98;11.25;;;15.80;91.20;;;;;;5007742;28;20531;-72
2021/07/28 04:10:01;;;;;;;17.48;11.07;;;15.90;91.10;;;;;;5010199;28;20119;-72
2021/07/28 04:12:26;;;;;;;19.27;11.20;;;15.80;91.20;;;;;;5007951;28;20107;-72
2021/07/28 04:14:52;;;;;;;16.35;10.38;;;15.80;91.20;;;;;;5002226;28;20115;-71
2021/07/28 04:17:18;;;;;;;14.98;10.27;;;15.80;91.10;;;;;;5030117;28;20434;-73
2021/07/28 04:19:48;;;;;;;16.85;9.50;;;15.70;91.10;;;;;;5022872;28;20053;-77
2021/07/28 04:22:15;;;;;;;21.92;9.18;;;15.70;91.10;;;;;;5014596;28;20050;-74
2021/07/28 04:24:41;;;;;;;19.90;9.55;;;15.70;91.10;;;;;;5006984;28;20065;-71
2021/07/28 04:27:07;;;;;;;17.85;9.63;;;15.70;91.00;;;;;;5007081;28;20075;-71
2021/07/28 04:29:32;;;;;;;19.00;8.90;;;15.60;90.90;;;;;;5015216;28;20034;-74
2021/07/28 04:31:58;;;;;;;16.08;9.50;;;15.60;90.80;;;;;;5009298;28;20065;-72
2021/07/28 04:34:23;;;;;;;18.33;8.18;;;15.60;90.70;;;;;;5006053;28;20049;-73
2021/07/28 04:36:49;;;;;;;15.82;8.30;;;15.70;90.50;;;;;;5031472;28;20454;-71
2021/07/28 04:39:15;;;;;;;15.05;8.23;;;15.70;90.40;;;;;;5026089;28;20034;-71
2021/07/28 04:41:40;;;;;;;14.63;7.95;;;15.80;90.30;;;;;;5034570;28;20495;-74
2021/07/28 04:44:06;;;;;;;15.85;7.95;;;15.80;90.20;;;;;;5023286;28;20039;-72
2021/07/28 04:46:32;;;;;;;15.48;7.75;;;15.90;90.00;;;;;;5007898;28;20065;-77
2021/07/28 04:48:57;;;;;;;17.58;7.47;;;15.90;89.90;;;;;;5013128;28;20069;-71
2021/07/28 04:51:23;;;;;;;15.50;7.50;;;15.90;89.90;;;;;;5034602;28;20025;-72
2021/07/28 04:53:49;;;;;;;17.40;7.97;;;15.90;89.60;;;;;;5026458;28;20041;-74
2021/07/28 04:56:14;;;;;;;12.43;6.90;;;15.90;89.50;;;;;;5022984;28;20033;-71
2021/07/28 04:58:40;;;;;;;17.08;7.57;;;16.00;89.30;;;;;;5028614;28;20504;-72
2021/07/28 05:01:06;;;;;;;13.15;6.88;;;16.10;89.10;;;;;;5032162;28;20033;-72
2021/07/28 05:03:31;;;;;;;14.98;6.65;;;16.10;88.70;;;;;;5027843;28;20468;-71
2021/07/28 05:05:57;;;;;;;13.93;6.97;;;16.20;88.70;;;;;;5002123;28;20034;-74
2021/07/28 05:08:22;;;;;;;15.90;7.30;;;16.30;88.00;;;;;;5009543;28;20128;-72
2021/07/28 05:10:51;;;;;;;14.77;7.30;;;16.40;87.50;;;;;;5003462;28;20423;-71
2021/07/28 05:13:16;;;;;;;17.88;6.80;;;16.50;87.40;;;;;;5004732;28;20091;-73
2021/07/28 05:15:42;;;;;;;12.77;5.95;;;16.50;87.00;;;;;;5021503;28;20030;-71
2021/07/28 05:18:08;;;;;;;12.65;5.85;;;16.60;86.50;;;;;;5030564;28;20574;-71
2021/07/28 05:20:33;;;;;;;13.40;6.95;;;16.60;86.60;;;;;;5002289;28;20442;-71
2021/07/28 05:22:59;;;;;;;14.73;6.68;;;16.70;86.60;;;;;;5005402;28;20061;-77
2021/07/28 05:25:28;;;;;;;10.48;5.45;;;16.80;86.40;;;;;;5009657;28;20038;-72
2021/07/28 05:27:54;;;;;;;11.10;4.97;;;17.40;85.50;;;;;;5012434;28;20050;-75
2021/07/28 05:30:20;;;;;;;12.48;5.40;;;18.60;81.40;;;;;;5016524;28;20481;-73
2021/07/28 05:32:45;;;;;;;12.40;4.53;;;19.20;77.60;;;;;;5001553;28;20037;-74
2021/07/28 05:35:11;;;;;;;10.52;4.95;;;19.60;75.80;;;;;;5027015;28;20037;-71
2021/07/28 05:37:37;;;;;;;13.38;5.05;;;19.60;74.80;;;;;;5026903;28;20037;-71
2021/07/28 05:40:03;;;;;;;9.13;4.72;;;19.30;76.20;;;;;;5028798;28;20029;-72
2021/07/28 05:42:29;;;;;;;11.43;5.22;;;19.40;74.80;;;;;;5024855;28;20045;-75
2021/07/28 05:44:55;;;;;;;11.32;4.93;;;19.30;76.00;;;;;;5029312;28;20041;-72
2021/07/28 05:47:20;;;;;;;15.05;5.03;;;19.60;74.80;;;;;;5026247;28;20424;-72
2021/07/28 05:49:46;;;;;;;13.18;5.32;;;19.20;75.20;;;;;;5031771;28;20676;-72
2021/07/28 05:52:12;;;;;;;13.48;5.13;;;19.00;76.80;;;;;;5022395;28;20038;-75
2021/07/28 05:54:37;;;;;;;12.10;5.40;;;19.00;77.40;;;;;;5027507;28;20041;-73
2021/07/28 05:57:03;;;;;;;13.82;6.18;;;18.90;77.70;;;;;;5031663;28;20057;-73
2021/07/28 05:59:29;;;;;;;11.05;5.22;;;18.80;78.80;;;;;;5033387;28;20045;-72
2021/07/28 06:01:54;;;;;;;13.00;5.18;;;18.90;78.70;;;;;;5022412;28;20041;-71
2021/07/28 06:04:20;;;;;;;11.77;5.68;;;18.60;78.60;;;;;;5022863;28;20512;-72
2021/07/28 06:06:46;;;;;;;14.57;6.05;;;18.30;79.20;;;;;;5026757;28;20068;-73
2021/07/28 06:09:11;;;;;;;13.32;6.25;;;18.00;80.50;;;;;;5026891;28;20049;-75
2021/07/28 06:11:37;;;;;;;11.60;5.63;;;17.70;81.60;;;;;;5027286;28;20036;-73
2021/07/28 06:14:03;;;;;;;14.55;6.88;;;17.60;82.40;;;;;;5026816;28;20048;-71
2021/07/28 06:16:29;;;;;;;13.88;6.38;;;17.60;82.90;;;;;;5006565;28;20042;-72
2021/07/28 06:18:54;;;;;;;15.55;7.00;;;17.50;83.10;;;;;;4999766;28;20505;-72
2021/07/28 06:21:20;;;;;;;13.68;6.65;;;17.40;83.00;;;;;;5007169;28;20030;-73
2021/07/28 06:23:46;;;;;;;15.35;6.47;;;17.60;82.90;;;;;;5024171;28;20199;-73
2021/07/28 06:26:11;;;;;;;18.95;6.97;;;17.70;82.80;;;;;;5028235;28;20044;-73
2021/07/28 06:28:37;;;;;;;14.27;6.40;;;17.80;82.50;;;;;;5031489;28;20029;-73
2021/07/28 06:31:03;;;;;;;14.18;5.93;;;17.90;82.10;;;;;;5022871;28;20103;-70
2021/07/28 06:33:28;;;;;;;12.98;5.88;;;18.00;81.70;;;;;;5024553;28;20030;-73
2021/07/28 06:35:54;;;;;;;12.93;6.57;;;17.90;82.20;;;;;;5025821;28;20037;-69
2021/07/28 06:38:20;;;;;;;12.80;7.03;;;18.00;82.30;;;;;;5017783;28;20116;-70
2021/07/28 06:40:47;;;;;;;11.30;6.10;;;18.10;81.70;;;;;;5026759;28;20155;-69
2021/07/28 06:43:14;;;;;;;10.20;6.03;;;18.10;81.30;;;;;;5025638;28;20053;-69
2021/07/28 06:45:40;;;;;;;11.65;5.82;;;18.10;81.10;;;;;;5019255;28;20030;-70
2021/07/28 06:48:06;;;;;;;13.90;6.28;;;18.10;81.60;;;;;;5028280;28;20048;-70
2021/07/28 06:50:32;;;;;;;16.60;6.85;;;18.00;81.70;;;;;;5023766;28;20481;-69
2021/07/28 06:52:58;;;;;;;13.00;6.15;;;17.90;81.70;;;;;;5026422;28;20037;-72
2021/07/28 06:55:24;;;;;;;14.43;6.60;;;18.00;81.70;;;;;;5022873;28;20037;-69
2021/07/28 06:57:50;;;;;;;15.13;6.57;;;17.90;81.50;;;;;;5021644;28;20033;-69
2021/07/28 07:00:16;;;;;;;16.10;6.80;;;17.90;82.00;;;;;;5023180;28;20032;-71
2021/07/28 07:02:42;;;;;;;18.33;6.63;;;17.90;82.30;;;;;;5006852;28;20042;-69
2021/07/28 07:05:09;;;;;;;14.50;6.20;;;17.80;81.60;;;;;;5017044;28;20380;-69
2021/07/28 07:07:34;;;;;;;14.35;6.00;;;17.90;81.60;;;;;;5002782;28;20033;-70
2021/07/28 07:10:00;;;;;;;14.98;6.90;;;18.00;81.80;;;;;;5005810;28;20029;-70
2021/07/28 07:12:26;;;;;;;13.70;5.90;;;18.10;81.70;;;;;;5002703;28;20605;-69
2021/07/28 07:14:52;;;;;;;13.23;6.03;;;18.30;81.00;;;;;;5000006;28;20512;-69
2021/07/28 07:17:18;;;;;;;14.25;6.15;;;18.50;80.30;;;;;;4998379;28;20045;-69
2021/07/28 07:19:43;;;;;;;16.58;6.15;;;18.60;79.60;;;;;;5002922;28;20030;-72
2021/07/28 07:22:09;;;;;;;15.88;6.53;;;18.80;78.70;;;;;;5002914;28;20551;-69
2021/07/28 07:24:35;;;;;;;9.50;5.05;;;19.10;78.40;;;;;;4996422;28;20109;-70
2021/07/28 07:27:02;;;;;;;16.98;5.53;;;19.30;77.40;;;;;;5006377;28;20045;-70
2021/07/28 07:29:27;;;;;;;14.95;5.50;;;19.50;76.90;;;;;;5004841;28;20116;-71
2021/07/28 07:31:53;;;;;;;14.15;5.80;;;19.40;77.00;;;;;;5008610;28;20465;-73
2021/07/28 07:34:20;;;;;;;11.25;5.63;;;19.40;77.10;;;;;;5006617;28;20026;-72
2021/07/28 07:36:46;;;;;;;12.60;5.05;;;19.50;76.80;;;;;;5003872;28;20048;-70
2021/07/28 07:39:12;;;;;;;10.05;5.53;;;19.60;76.50;;;;;;5003224;28;20039;-70
2021/07/28 07:41:38;;;;;;;12.18;5.55;;;19.40;76.70;;;;;;5006354;28;20037;-69
2021/07/28 07:44:04;;;;;;;12.23;5.40;;;19.20;76.40;;;;;;4998809;28;20031;-69
2021/07/28 07:46:30;;;;;;;17.40;5.22;;;19.00;77.00;;;;;;5008108;28;20042;-70
2021/07/28 07:48:56;;;;;;;14.68;5.88;;;18.90;77.90;;;;;;5000304;28;20038;-70
2021/07/28 07:51:22;;;;;;;13.93;5.70;;;18.90;78.40;;;;;;5002065;28;20117;-68
2021/07/28 07:53:48;;;;;;;16.05;6.07;;;19.10;78.10;;;;;;5002088;28;20338;-69
2021/07/28 07:56:14;;;;;;;12.13;5.20;;;19.10;77.50;;;;;;5005674;28;20385;-69
2021/07/28 07:58:39;;;;;;;11.70;5.82;;;19.10;77.40;;;;;;5004215;28;20038;-69
2021/07/28 08:01:10;;;;;;;9.73;5.47;;;19.30;77.20;;;;;;5009171;28;20432;-71
2021/07/28 08:03:37;;;;;;;14.18;6.10;;;19.40;76.30;;;;;;5005184;28;20052;-70
2021/07/28 08:06:03;;;;;;;13.82;5.30;;;19.60;76.50;;;;;;5016863;28;20476;-70
2021/07/28 08:08:29;;;;;;;9.32;5.15;;;20.00;74.90;;;;;;5014887;28;20381;-68
2021/07/28 08:10:57;;;;;;;10.18;5.05;;;20.10;74.00;;;;;;5003903;28;20033;-70
2021/07/28 08:13:23;;;;;;;10.88;5.28;;;20.40;73.00;;;;;;5006352;28;20038;-69
2021/07/28 08:15:49;;;;;;;11.18;5.15;;;20.60;72.50;;;;;;5014201;28;20081;-69
2021/07/28 08:18:15;;;;;;;10.55;4.55;;;20.60;74.20;;;;;;5014484;28;20419;-69
2021/07/28 08:20:41;;;;;;;11.98;4.75;;;20.70;72.90;;;;;;5008136;28;20577;-72
2021/07/28 08:23:07;;;;;;;11.40;4.57;;;20.90;70.50;;;;;;5000964;28;20093;-68
2021/07/28 08:25:33;;;;;;;13.02;4.25;;;20.90;70.40;;;;;;5000356;28;20030;-71
2021/07/28 08:27:58;;;;;;;10.52;4.47;;;20.90;69.40;;;;;;5009923;28;20112;-68
2021/07/28 08:30:24;;;;;;;9.25;4.55;;;20.80;70.60;;;;;;4994904;28;20121;-68
2021/07/28 08:32:50;;;;;;;10.35;4.40;;;20.90;70.90;;;;;;4999584;28;20069;-70
2021/07/28 08:35:15;;;;;;;7.85;3.78;;;21.00;70.40;;;;;;5001547;28;20030;-68
2021/07/28 08:37:43;;;;;;;8.98;3.60;;;21.30;69.40;;;;;;5022718;28;20041;-69
2021/07/28 08:40:11;;;;;;;14.35;3.88;;;21.60;68.50;;;;;;5023039;28;20044;-68
2021/07/28 08:42:38;;;;;;;9.55;3.55;;;21.20;68.70;;;;;;5025837;28;20914;-68
2021/07/28 08:45:04;;;;;;;9.80;4.28;;;21.10;69.70;;;;;;5032576;28;20030;-69
2021/07/28 08:47:29;;;;;;;11.48;4.00;;;20.80;69.40;;;;;;5028423;28;20033;-68
2021/07/28 08:49:55;;;;;;;10.55;3.95;;;20.80;70.40;;;;;;5034662;28;20381;-68
2021/07/28 08:52:22;;;;;;;10.43;4.30;;;20.60;70.10;;;;;;5029196;28;20482;-69
2021/07/28 08:54:48;;;;;;;10.00;4.47;;;20.50;70.10;;;;;;5036202;28;20125;-69
2021/07/28 08:57:14;;;;;;;9.52;4.30;;;20.40;71.30;;;;;;5029144;28;20116;-71
2021/07/28 08:59:40;;;;;;;12.32;4.55;;;20.60;71.10;;;;;;5033817;28;20543;-74
2021/07/28 09:02:06;;;;;;;10.10;4.07;;;20.60;71.40;;;;;;5012806;28;20084;-70
2021/07/28 09:04:32;;;;;;;9.13;4.35;;;20.60;70.30;;;;;;5013382;28;20046;-70
2021/07/28 09:06:57;;;;;;;8.63;4.18;;;20.60;70.10;;;;;;5015529;28;20036;-68
2021/07/28 09:09:23;;;;;;;12.05;4.85;;;20.40;70.80;;;;;;5011233;28;20046;-69
2021/07/28 09:11:59;;;;;;;10.70;4.68;;;20.40;71.00;;;;;;5021285;28;20030;-69
2021/07/28 09:14:37;;;;;;;13.27;4.75;;;20.50;71.20;;;;;;5023125;28;20032;-70
2021/07/28 09:17:14;;;;;;;10.20;4.68;;;20.50;71.20;;;;;;5024713;28;20029;-69
2021/07/28 09:19:47;;;;;;;12.98;4.70;;;20.60;71.00;;;;;;5024751;28;20034;-71
2021/07/28 09:22:15;;;;;;;11.30;4.45;;;20.60;71.10;;;;;;5023474;28;20069;-69
2021/07/28 09:24:42;;;;;;;13.98;4.75;;;20.50;69.60;;;;;;5022199;28;20109;-71
2021/07/28 09:27:07;;;;;;;12.25;4.88;;;20.20;70.60;;;;;;5021996;28;20042;-68
2021/07/28 09:29:38;;;;;;;10.82;4.70;;;20.00;71.60;;;;;;5029166;28;20044;-69
2021/07/28 09:32:06;;;;;;;10.23;5.90;;;19.70;72.70;;;;;;5026704;28;20116;-70
2021/07/28 09:34:34;;;;;;;11.52;5.65;;;19.60;75.70;;;;;;5026208;28;20037;-71
2021/07/28 09:37:04;;;;;;;11.40;6.18;;;19.50;76.80;;;;;;5027493;28;20045;-70
2021/07/28 09:39:44;;;;;;;10.07;5.38;;;19.30;77.60;;;;;;5026178;28;20038;-69
2021/07/28 09:42:17;;;;;;;11.32;6.28;;;19.20;78.20;;;;;;5025110;28;20381;-69
2021/07/28 09:44:45;;;;;;;13.13;7.15;;;19.20;79.00;;;;;;5010429;28;20038;-71
2021/07/28 09:47:14;;;;;;;11.55;6.30;;;19.40;79.60;;;;;;5006467;28;20034;-70
2021/07/28 09:49:46;;;;;;;13.00;7.10;;;19.30;80.00;;;;;;5002497;28;20033;-69
2021/07/28 09:52:25;;;;;;;13.00;7.57;;;19.20;80.30;;;;;;5003678;28;20413;-71
2021/07/28 09:54:54;;;;;;;12.05;6.95;;;19.30;80.80;;;;;;5004501;28;20413;-69
2021/07/28 09:57:21;;;;;;;11.77;7.18;;;19.30;81.60;;;;;;5008646;28;20091;-71
2021/07/28 09:59:51;;;;;;;11.70;7.57;;;19.40;81.80;;;;;;5001986;28;20064;-70
2021/07/28 10:02:17;;;;;;;12.18;7.95;;;19.40;81.90;;;;;;5001018;28;20660;-70
2021/07/28 10:04:48;;;;;;;11.80;8.48;;;19.10;82.00;;;;;;5002720;28;20379;-70
2021/07/28 10:07:16;;;;;;;13.25;8.32;;;19.00;82.80;;;;;;5008501;28;20045;-70
2021/07/28 10:09:48;;;;;;;14.00;9.05;;;18.90;83.20;;;;;;5011787;28;20065;-69
2021/07/28 10:12:15;;;;;;;11.90;8.07;;;18.80;84.40;;;;;;4999597;28;20124;-71
2021/07/28 10:14:42;;;;;;;13.43;8.70;;;19.00;84.30;;;;;;5020650;28;20362;-71
2021/07/28 10:17:10;;;;;;;13.15;9.10;;;19.10;84.10;;;;;;5002424;28;20038;-69
2021/07/28 10:19:35;;;;;;;12.30;8.38;;;19.20;83.40;;;;;;5003455;28;20074;-69
2021/07/28 10:22:02;;;;;;;12.02;7.40;;;19.30;82.90;;;;;;4999946;28;20049;-69
2021/07/28 10:24:27;;;;;;;12.15;7.85;;;19.30;83.30;;;;;;5000073;28;20037;-70
2021/07/28 10:26:57;;;;;;;13.95;8.25;;;19.30;83.10;;;;;;4998144;28;20034;-69
2021/07/28 10:29:23;;;;;;;11.40;7.20;;;19.40;83.10;;;;;;5002176;28;20034;-70
2021/07/28 10:31:51;;;;;;;11.07;7.40;;;19.30;82.20;;;;;;5002417;28;20038;-71
2021/07/28 10:34:30;;;;;;;11.32;8.00;;;19.40;82.60;;;;;;5004380;28;20121;-69
2021/07/28 10:37:01;;;;;;;9.90;6.68;;;19.50;82.30;;;;;;5005825;28;20448;-70
2021/07/28 10:39:47;;;;;;;9.18;6.47;;;19.60;82.30;;;;;;5043973;28;20076;-71
2021/07/28 10:42:29;;;;;;;10.73;6.03;;;19.80;81.50;;;;;;5030690;28;20033;-71
2021/07/28 10:45:04;;;;;;;9.10;5.30;;;19.90;79.60;;;;;;5033446;28;20034;-69
2021/07/28 10:47:40;;;;;;;8.52;4.60;;;19.80;79.80;;;;;;5029567;28;20037;-70
2021/07/28 10:50:23;;;;;;;10.55;5.30;;;19.70;79.60;;;;;;5025747;28;20037;-71
2021/07/28 10:52:53;;;;;;;7.78;4.50;;;19.70;81.20;;;;;;5037869;28;20131;-69
2021/07/28 10:55:20;;;;;;;9.00;5.07;;;19.50;80.90;;;;;;5028918;28;20041;-70
2021/07/28 10:57:52;;;;;;;9.73;4.68;;;19.20;81.80;;;;;;5032835;28;20205;-70
2021/07/28 11:00:39;;;;;;;9.07;4.68;;;19.20;83.20;;;;;;5030016;28;20476;-71
2021/07/28 11:03:07;;;;;;;8.30;5.30;;;19.20;83.00;;;;;;5025662;28;20034;-70
2021/07/28 11:05:48;;;;;;;8.82;5.07;;;19.30;83.00;;;;;;5028482;28;20124;-70
2021/07/28 11:08:20;;;;;;;7.05;4.30;;;19.40;83.00;;;;;;5027198;28;20488;-71
2021/07/28 11:10:51;;;;;;;8.07;4.70;;;19.50;81.90;;;;;;5030344;28;20094;-71
2021/07/28 11:13:25;;;;;;;7.30;4.68;;;19.70;82.60;;;;;;5034637;28;20129;-69
2021/07/28 11:16:01;;;;;;;10.57;5.38;;;20.10;81.80;;;;;;5025168;28;20570;-70
2021/07/28 11:18:37;;;;;;;9.00;4.68;;;20.20;80.20;;;;;;5020105;28;20127;-71
2021/07/28 11:21:14;;;;;;;7.47;4.20;;;20.60;80.40;;;;;;5019702;28;20488;-72
2021/07/28 11:23:51;;;;;;;7.97;3.65;;;20.90;79.00;;;;;;5023921;28;20504;-72
2021/07/28 11:26:23;;;;;;;5.88;2.90;;;20.80;76.80;;;;;;5021348;28;20025;-72
2021/07/28 11:29:14;;;;;;;6.47;3.22;;;20.70;76.20;;;;;;5026058;28;20049;-70
2021/07/28 11:31:42;;;;;;;6.38;3.05;;;20.60;76.30;;;;;;5023878;28;20084;-72
2021/07/28 11:34:11;;;;;;;5.85;2.35;;;20.50;76.60;;;;;;5025395;28;20061;-71
2021/07/28 11:36:39;;;;;;;6.65;2.90;;;20.40;76.40;;;;;;5024928;28;20033;-70
2021/07/28 11:39:11;;;;;;;5.65;2.85;;;20.30;78.10;;;;;;5023371;28;20087;-70
2021/07/28 11:41:37;;;;;;;6.72;3.00;;;20.30;79.60;;;;;;5031697;28;20047;-70
2021/07/28 11:44:03;;;;;;;7.63;3.42;;;20.50;79.30;;;;;;5016729;28;20034;-70
2021/07/28 11:46:29;;;;;;;5.97;3.40;;;20.70;79.80;;;;;;5008845;28;20503;-70
2021/07/28 11:48:57;;;;;;;6.38;3.20;;;20.90;77.80;;;;;;5015960;28;20096;-70
2021/07/28 11:51:27;;;;;;;6.78;3.20;;;21.00;77.40;;;;;;5025707;28;20029;-71
2021/07/28 11:54:05;;;;;;;7.43;3.13;;;20.70;77.30;;;;;;5026315;28;20057;-72
2021/07/28 11:56:31;;;;;;;5.50;3.10;;;20.60;77.60;;;;;;5029184;28;20036;-69
2021/07/28 11:58:57;;;;;;;6.82;3.03;;;20.90;74.60;;;;;;5031557;28;20042;-70
2021/07/28 12:01:26;;;;;;;7.93;2.97;;;20.80;74.00;;;;;;5023931;28;20048;-70
2021/07/28 12:03:53;;;;;;;8.88;3.55;;;21.20;75.30;;;;;;5025096;28;20034;-70
2021/07/28 12:06:35;;;;;;;10.05;3.55;;;21.40;73.90;;;;;;5028429;28;20079;-70
2021/07/28 12:09:11;;;;;;;6.75;3.22;;;21.40;72.80;;;;;;5021173;28;20567;-70
2021/07/28 12:11:54;;;;;;;5.63;2.58;;;21.40;71.20;;;;;;5023707;28;20034;-71
2021/07/28 12:14:30;;;;;;;9.17;2.80;;;21.30;71.50;;;;;;5031635;28;20063;-75
2021/07/28 12:17:05;;;;;;;8.20;2.88;;;21.20;70.00;;;;;;5027578;28;20045;-70
2021/07/28 12:19:33;;;;;;;9.98;3.00;;;21.40;70.30;;;;;;5021204;28;20029;-70
2021/07/28 12:22:09;;;;;;;6.80;3.22;;;21.50;69.50;;;;;;5021062;28;20450;-69
2021/07/28 12:24:45;;;;;;;6.63;3.00;;;21.60;69.00;;;;;;5030920;28;20030;-69
2021/07/28 12:27:26;;;;;;;7.72;2.95;;;22.10;69.90;;;;;;5035093;28;20110;-69
2021/07/28 12:30:03;;;;;;;9.65;2.90;;;22.00;68.10;;;;;;5031306;28;20072;-69
2021/07/28 12:32:35;;;;;;;8.73;3.22;;;22.20;65.60;;;;;;5024724;28;20573;-69
2021/07/28 12:35:06;;;;;;;6.82;2.58;;;22.30;66.50;;;;;;5032757;28;20033;-72
2021/07/28 12:37:32;;;;;;;9.50;3.13;;;22.10;66.00;;;;;;5024650;28;20042;-70
2021/07/28 12:39:58;;;;;;;9.65;3.60;;;22.00;65.60;;;;;;5017530;28;20048;-70
2021/07/28 12:42:24;;;;;;;8.48;3.30;;;22.00;67.20;;;;;;5000674;28;20030;-69